sensor_id;sensor_type;location;lat;lon;timestamp;temperature;humidity
22827;DHT22;11580;52.562;13.418;2022-12-29T00:00:19;13.30;36.40
22827;DHT22;11580;52.562;13.418;2022-12-29T00:02:46;13.20;35.70
22827;DHT22;11580;52.562;13.418;2022-12-29T00:05:13;13.20;36.40
22827;DHT22;11580;52.562;13.418;2022-12-29T00:07:40;13.20;35.80
22827;DHT22;11580;52.562;13.418;2022-12-29T00:10:08;13.20;36.60
22827;DHT22;11580;52.562;13.418;2022-12-29T00:12:35;13.20;35.90
22827;DHT22;11580;52.562;13.418;2022-12-29T00:15:21;13.20;36.60
22827;DHT22;11580;52.562;13.418;2022-12-29T00:18:03;13.20;35.80
22827;DHT22;11580;52.562;13.418;2022-12-29T00:20:34;13.20;35.80
22827;DHT22;11580;52.562;13.418;2022-12-29T00:23:20;13.20;35.70
22827;DHT22;11580;52.562;13.418;2022-12-29T00:26:11;13.30;35.90
22827;DHT22;11580;52.562;13.418;2022-12-29T00:28:57;13.30;35.60
22827;DHT22;11580;52.562;13.418;2022-12-29T00:31:43;13.30;35.80
22827;DHT22;11580;52.562;13.418;2022-12-29T00:34:28;13.30;35.70
22827;DHT22;11580;52.562;13.418;2022-12-29T00:37:13;13.30;35.70
22827;DHT22;11580;52.562;13.418;2022-12-29T00:39:40;13.40;35.80
22827;DHT22;11580;52.562;13.418;2022-12-29T00:42:25;13.40;36.50
22827;DHT22;11580;52.562;13.418;2022-12-29T00:45:10;13.40;35.80
22827;DHT22;11580;52.562;13.418;2022-12-29T00:47:38;13.40;36.50
22827;DHT22;11580;52.562;13.418;2022-12-29T00:50:06;13.40;35.70
22827;DHT22;11580;52.562;13.418;2022-12-29T00:52:33;13.40;35.70
22827;DHT22;11580;52.562;13.418;2022-12-29T00:55:00;13.50;35.70
22827;DHT22;11580;52.562;13.418;2022-12-29T00:57:27;13.50;35.80
22827;DHT22;11580;52.562;13.418;2022-12-29T00:59:54;13.50;35.70
22827;DHT22;11580;52.562;13.418;2022-12-29T01:02:21;13.50;35.70
22827;DHT22;11580;52.562;13.418;2022-12-29T01:04:50;13.50;35.60
22827;DHT22;11580;52.562;13.418;2022-12-29T01:07:17;13.70;35.70
22827;DHT22;11580;52.562;13.418;2022-12-29T01:09:44;13.50;35.60
22827;DHT22;11580;52.562;13.418;2022-12-29T01:12:29;13.50;35.60
22827;DHT22;11580;52.562;13.418;2022-12-29T01:15:12;13.50;35.50
22827;DHT22;11580;52.562;13.418;2022-12-29T01:17:41;13.50;35.50
22827;DHT22;11580;52.562;13.418;2022-12-29T01:20:11;13.50;35.50
22827;DHT22;11580;52.562;13.418;2022-12-29T01:22:39;13.50;35.40
22827;DHT22;11580;52.562;13.418;2022-12-29T01:25:08;13.50;35.50
22827;DHT22;11580;52.562;13.418;2022-12-29T01:27:37;13.50;35.50
22827;DHT22;11580;52.562;13.418;2022-12-29T01:30:06;13.50;35.60
22827;DHT22;11580;52.562;13.418;2022-12-29T01:32:33;13.50;35.60
22827;DHT22;11580;52.562;13.418;2022-12-29T01:35:01;13.50;35.70
22827;DHT22;11580;52.562;13.418;2022-12-29T01:37:30;13.50;35.70
22827;DHT22;11580;52.562;13.418;2022-12-29T01:39:57;13.50;35.60
22827;DHT22;11580;52.562;13.418;2022-12-29T01:42:25;13.50;35.70
22827;DHT22;11580;52.562;13.418;2022-12-29T01:44:53;13.50;35.70
22827;DHT22;11580;52.562;13.418;2022-12-29T01:47:30;13.60;35.70
22827;DHT22;11580;52.562;13.418;2022-12-29T01:50:03;13.60;35.50
22827;DHT22;11580;52.562;13.418;2022-12-29T01:52:37;13.60;36.20
22827;DHT22;11580;52.562;13.418;2022-12-29T01:55:10;13.60;35.40
22827;DHT22;11580;52.562;13.418;2022-12-29T01:57:41;13.60;35.50
22827;DHT22;11580;52.562;13.418;2022-12-29T02:00:14;13.60;35.40
22827;DHT22;11580;52.562;13.418;2022-12-29T02:02:44;13.60;35.50
22827;DHT22;11580;52.562;13.418;2022-12-29T02:05:16;13.60;35.50
22827;DHT22;11580;52.562;13.418;2022-12-29T02:07:52;13.60;35.60
22827;DHT22;11580;52.562;13.418;2022-12-29T02:10:20;13.60;35.50
22827;DHT22;11580;52.562;13.418;2022-12-29T02:12:50;13.60;35.60
22827;DHT22;11580;52.562;13.418;2022-12-29T02:15:21;13.60;35.70
22827;DHT22;11580;52.562;13.418;2022-12-29T02:18:09;13.60;35.60
22827;DHT22;11580;52.562;13.418;2022-12-29T02:27:48;13.60;35.40
22827;DHT22;11580;52.562;13.418;2022-12-29T02:30:38;13.60;35.20
22827;DHT22;11580;52.562;13.418;2022-12-29T02:33:20;13.60;35.10
22827;DHT22;11580;52.562;13.418;2022-12-29T02:35:58;13.70;35.10
22827;DHT22;11580;52.562;13.418;2022-12-29T02:38:45;13.60;35.10
22827;DHT22;11580;52.562;13.418;2022-12-29T02:41:23;13.70;35.80
22827;DHT22;11580;52.562;13.418;2022-12-29T02:44:02;13.70;35.10
22827;DHT22;11580;52.562;13.418;2022-12-29T02:46:41;13.80;35.00
22827;DHT22;11580;52.562;13.418;2022-12-29T02:49:13;13.60;34.80
22827;DHT22;11580;52.562;13.418;2022-12-29T02:51:50;13.60;34.80
22827;DHT22;11580;52.562;13.418;2022-12-29T02:54:23;13.70;34.70
22827;DHT22;11580;52.562;13.418;2022-12-29T02:57:14;13.70;35.00
22827;DHT22;11580;52.562;13.418;2022-12-29T02:59:56;13.70;34.70
22827;DHT22;11580;52.562;13.418;2022-12-29T03:06:05;13.70;34.20
22827;DHT22;11580;52.562;13.418;2022-12-29T03:08:53;13.80;34.10
22827;DHT22;11580;52.562;13.418;2022-12-29T03:11:31;13.80;35.10
22827;DHT22;11580;52.562;13.418;2022-12-29T03:14:27;13.80;34.30
22827;DHT22;11580;52.562;13.418;2022-12-29T03:17:23;13.90;34.20
22827;DHT22;11580;52.562;13.418;2022-12-29T03:19:59;13.90;34.30
22827;DHT22;11580;52.562;13.418;2022-12-29T03:22:33;13.90;34.00
22827;DHT22;11580;52.562;13.418;2022-12-29T03:25:15;14.00;34.30
22827;DHT22;11580;52.562;13.418;2022-12-29T03:27:50;14.00;34.90
22827;DHT22;11580;52.562;13.418;2022-12-29T03:30:22;14.00;34.20
22827;DHT22;11580;52.562;13.418;2022-12-29T03:32:53;14.10;34.40
22827;DHT22;11580;52.562;13.418;2022-12-29T03:35:28;14.10;34.10
22827;DHT22;11580;52.562;13.418;2022-12-29T03:38:02;14.10;34.00
22827;DHT22;11580;52.562;13.418;2022-12-29T03:40:38;14.20;34.20
22827;DHT22;11580;52.562;13.418;2022-12-29T03:43:10;14.30;34.10
22827;DHT22;11580;52.562;13.418;2022-12-29T03:45:39;14.20;34.80
22827;DHT22;11580;52.562;13.418;2022-12-29T03:48:07;14.30;34.20
22827;DHT22;11580;52.562;13.418;2022-12-29T03:50:38;14.30;34.80
22827;DHT22;11580;52.562;13.418;2022-12-29T03:53:06;14.40;33.90
22827;DHT22;11580;52.562;13.418;2022-12-29T03:55:33;14.30;33.90
22827;DHT22;11580;52.562;13.418;2022-12-29T03:58:00;14.40;33.90
22827;DHT22;11580;52.562;13.418;2022-12-29T04:00:43;14.40;33.80
22827;DHT22;11580;52.562;13.418;2022-12-29T04:03:11;14.40;33.80
22827;DHT22;11580;52.562;13.418;2022-12-29T04:05:40;14.60;34.70
22827;DHT22;11580;52.562;13.418;2022-12-29T04:08:07;14.50;33.70
22827;DHT22;11580;52.562;13.418;2022-12-29T04:10:34;14.50;33.80
22827;DHT22;11580;52.562;13.418;2022-12-29T04:13:04;14.50;33.80
22827;DHT22;11580;52.562;13.418;2022-12-29T04:15:32;14.50;33.80
22827;DHT22;11580;52.562;13.418;2022-12-29T04:17:59;14.50;33.60
22827;DHT22;11580;52.562;13.418;2022-12-29T04:20:27;14.60;33.70
22827;DHT22;11580;52.562;13.418;2022-12-29T04:23:13;14.50;33.60
22827;DHT22;11580;52.562;13.418;2022-12-29T04:25:44;14.60;33.50
22827;DHT22;11580;52.562;13.418;2022-12-29T04:28:14;14.60;33.60
22827;DHT22;11580;52.562;13.418;2022-12-29T04:31:02;14.60;33.60
22827;DHT22;11580;52.562;13.418;2022-12-29T04:33:35;14.70;33.70
22827;DHT22;11580;52.562;13.418;2022-12-29T04:36:03;14.70;33.60
22827;DHT22;11580;52.562;13.418;2022-12-29T04:38:33;14.70;33.60
22827;DHT22;11580;52.562;13.418;2022-12-29T04:41:03;14.70;33.40
22827;DHT22;11580;52.562;13.418;2022-12-29T04:43:31;14.70;33.40
22827;DHT22;11580;52.562;13.418;2022-12-29T04:46:21;14.70;33.40
22827;DHT22;11580;52.562;13.418;2022-12-29T04:48:56;14.70;33.30
22827;DHT22;11580;52.562;13.418;2022-12-29T04:51:38;14.70;33.30
22827;DHT22;11580;52.562;13.418;2022-12-29T04:54:10;14.70;33.20
22827;DHT22;11580;52.562;13.418;2022-12-29T04:56:37;14.60;33.00
22827;DHT22;11580;52.562;13.418;2022-12-29T04:59:05;14.60;33.10
22827;DHT22;11580;52.562;13.418;2022-12-29T05:01:32;14.60;33.10
22827;DHT22;11580;52.562;13.418;2022-12-29T05:03:59;14.60;33.20
22827;DHT22;11580;52.562;13.418;2022-12-29T05:06:27;14.50;33.20
22827;DHT22;11580;52.562;13.418;2022-12-29T05:08:54;14.70;33.50
22827;DHT22;11580;52.562;13.418;2022-12-29T05:11:23;14.50;33.30
22827;DHT22;11580;52.562;13.418;2022-12-29T05:13:50;14.50;33.30
22827;DHT22;11580;52.562;13.418;2022-12-29T05:16:17;14.50;33.50
22827;DHT22;11580;52.562;13.418;2022-12-29T05:18:44;14.50;33.50
22827;DHT22;11580;52.562;13.418;2022-12-29T05:21:13;14.50;33.50
22827;DHT22;11580;52.562;13.418;2022-12-29T05:23:42;14.50;34.20
22827;DHT22;11580;52.562;13.418;2022-12-29T05:26:09;14.50;34.20
22827;DHT22;11580;52.562;13.418;2022-12-29T05:28:56;14.60;33.70
22827;DHT22;11580;52.562;13.418;2022-12-29T05:31:24;14.50;34.20
22827;DHT22;11580;52.562;13.418;2022-12-29T05:33:52;14.50;33.60
22827;DHT22;11580;52.562;13.418;2022-12-29T05:36:20;14.50;33.60
22827;DHT22;11580;52.562;13.418;2022-12-29T05:38:52;14.50;33.50
22827;DHT22;11580;52.562;13.418;2022-12-29T05:41:19;14.50;33.60
22827;DHT22;11580;52.562;13.418;2022-12-29T05:44:00;14.50;34.30
22827;DHT22;11580;52.562;13.418;2022-12-29T05:46:43;14.50;33.60
22827;DHT22;11580;52.562;13.418;2022-12-29T05:49:32;14.60;33.90
22827;DHT22;11580;52.562;13.418;2022-12-29T05:52:07;14.60;33.90
22827;DHT22;11580;52.562;13.418;2022-12-29T05:54:34;14.60;33.90
22827;DHT22;11580;52.562;13.418;2022-12-29T05:57:07;14.60;34.70
22827;DHT22;11580;52.562;13.418;2022-12-29T05:59:37;14.60;34.00
22827;DHT22;11580;52.562;13.418;2022-12-29T06:02:04;14.70;33.90
22827;DHT22;11580;52.562;13.418;2022-12-29T06:04:32;14.70;34.70
22827;DHT22;11580;52.562;13.418;2022-12-29T06:06:59;14.80;34.10
22827;DHT22;11580;52.562;13.418;2022-12-29T06:09:38;14.80;34.10
22827;DHT22;11580;52.562;13.418;2022-12-29T06:12:06;14.80;34.00
22827;DHT22;11580;52.562;13.418;2022-12-29T06:14:33;14.80;34.00
22827;DHT22;11580;52.562;13.418;2022-12-29T06:17:04;14.90;34.10
22827;DHT22;11580;52.562;13.418;2022-12-29T06:19:32;14.90;33.90
22827;DHT22;11580;52.562;13.418;2022-12-29T06:21:59;15.00;34.10
22827;DHT22;11580;52.562;13.418;2022-12-29T06:24:31;15.00;34.10
22827;DHT22;11580;52.562;13.418;2022-12-29T06:26:59;15.00;34.00
22827;DHT22;11580;52.562;13.418;2022-12-29T06:29:26;15.10;34.00
22827;DHT22;11580;52.562;13.418;2022-12-29T06:31:56;15.10;34.70
22827;DHT22;11580;52.562;13.418;2022-12-29T06:34:25;15.10;34.00
22827;DHT22;11580;52.562;13.418;2022-12-29T06:36:52;15.10;33.80
22827;DHT22;11580;52.562;13.418;2022-12-29T06:39:20;15.10;33.90
22827;DHT22;11580;52.562;13.418;2022-12-29T06:42:01;15.20;33.90
22827;DHT22;11580;52.562;13.418;2022-12-29T06:44:47;15.20;34.00
22827;DHT22;11580;52.562;13.418;2022-12-29T06:47:14;15.20;33.90
22827;DHT22;11580;52.562;13.418;2022-12-29T06:49:43;15.30;33.90
22827;DHT22;11580;52.562;13.418;2022-12-29T06:52:10;15.30;33.70
22827;DHT22;11580;52.562;13.418;2022-12-29T06:54:38;15.30;33.80
22827;DHT22;11580;52.562;13.418;2022-12-29T06:57:05;15.30;33.80
22827;DHT22;11580;52.562;13.418;2022-12-29T06:59:32;15.30;33.70
22827;DHT22;11580;52.562;13.418;2022-12-29T07:01:59;15.30;33.70
22827;DHT22;11580;52.562;13.418;2022-12-29T07:04:27;15.30;33.60
22827;DHT22;11580;52.562;13.418;2022-12-29T07:06:56;15.30;33.50
22827;DHT22;11580;52.562;13.418;2022-12-29T07:09:23;15.30;33.40
22827;DHT22;11580;52.562;13.418;2022-12-29T07:11:50;15.30;33.40
22827;DHT22;11580;52.562;13.418;2022-12-29T07:14:17;15.30;33.40
22827;DHT22;11580;52.562;13.418;2022-12-29T07:16:44;15.20;33.30
22827;DHT22;11580;52.562;13.418;2022-12-29T07:19:12;15.20;34.10
22827;DHT22;11580;52.562;13.418;2022-12-29T07:21:39;15.10;33.30
22827;DHT22;11580;52.562;13.418;2022-12-29T07:24:08;15.10;33.50
22827;DHT22;11580;52.562;13.418;2022-12-29T07:26:36;15.10;33.50
22827;DHT22;11580;52.562;13.418;2022-12-29T07:29:03;15.00;33.70
22827;DHT22;11580;52.562;13.418;2022-12-29T07:31:31;15.00;33.80
22827;DHT22;11580;52.562;13.418;2022-12-29T07:33:58;15.00;33.80
22827;DHT22;11580;52.562;13.418;2022-12-29T07:36:25;15.00;33.70
22827;DHT22;11580;52.562;13.418;2022-12-29T07:38:52;15.00;34.40
22827;DHT22;11580;52.562;13.418;2022-12-29T07:41:21;14.90;33.70
22827;DHT22;11580;52.562;13.418;2022-12-29T07:43:48;14.90;33.60
22827;DHT22;11580;52.562;13.418;2022-12-29T07:46:33;14.90;33.70
22827;DHT22;11580;52.562;13.418;2022-12-29T07:49:00;14.90;33.80
22827;DHT22;11580;52.562;13.418;2022-12-29T07:51:28;14.80;33.80
22827;DHT22;11580;52.562;13.418;2022-12-29T07:54:04;14.80;33.90
22827;DHT22;11580;52.562;13.418;2022-12-29T07:56:33;14.80;34.10
22827;DHT22;11580;52.562;13.418;2022-12-29T07:59:00;14.80;34.10
22827;DHT22;11580;52.562;13.418;2022-12-29T08:01:27;14.80;34.20
22827;DHT22;11580;52.562;13.418;2022-12-29T08:03:54;14.90;34.40
22827;DHT22;11580;52.562;13.418;2022-12-29T08:06:21;14.90;34.40
22827;DHT22;11580;52.562;13.418;2022-12-29T08:08:49;14.90;34.40
22827;DHT22;11580;52.562;13.418;2022-12-29T08:11:16;15.00;34.40
22827;DHT22;11580;52.562;13.418;2022-12-29T08:13:44;15.00;34.40
22827;DHT22;11580;52.562;13.418;2022-12-29T08:16:12;15.00;34.20
22827;DHT22;11580;52.562;13.418;2022-12-29T08:18:39;15.10;34.30
22827;DHT22;11580;52.562;13.418;2022-12-29T08:21:06;15.10;34.30
22827;DHT22;11580;52.562;13.418;2022-12-29T08:23:33;15.20;35.10
22827;DHT22;11580;52.562;13.418;2022-12-29T08:26:03;15.20;34.40
22827;DHT22;11580;52.562;13.418;2022-12-29T08:28:31;15.30;34.30
22827;DHT22;11580;52.562;13.418;2022-12-29T08:31:01;15.30;34.40
22827;DHT22;11580;52.562;13.418;2022-12-29T08:33:29;15.30;34.00
22827;DHT22;11580;52.562;13.418;2022-12-29T08:35:59;15.40;34.10
22827;DHT22;11580;52.562;13.418;2022-12-29T08:38:27;15.40;33.80
22827;DHT22;11580;52.562;13.418;2022-12-29T08:40:55;15.40;34.50
22827;DHT22;11580;52.562;13.418;2022-12-29T08:43:22;15.40;33.70
22827;DHT22;11580;52.562;13.418;2022-12-29T08:45:50;15.40;33.70
22827;DHT22;11580;52.562;13.418;2022-12-29T08:48:19;15.30;33.60
22827;DHT22;11580;52.562;13.418;2022-12-29T08:50:48;15.30;33.60
22827;DHT22;11580;52.562;13.418;2022-12-29T08:53:16;15.30;33.70
22827;DHT22;11580;52.562;13.418;2022-12-29T08:55:45;15.20;33.80
22827;DHT22;11580;52.562;13.418;2022-12-29T08:58:14;15.20;33.90
22827;DHT22;11580;52.562;13.418;2022-12-29T09:00:43;15.20;34.10
22827;DHT22;11580;52.562;13.418;2022-12-29T09:03:11;15.20;34.20
22827;DHT22;11580;52.562;13.418;2022-12-29T09:05:39;15.30;34.40
22827;DHT22;11580;52.562;13.418;2022-12-29T09:08:06;15.30;34.20
22827;DHT22;11580;52.562;13.418;2022-12-29T09:10:34;15.40;34.30
22827;DHT22;11580;52.562;13.418;2022-12-29T09:13:01;15.40;34.30
22827;DHT22;11580;52.562;13.418;2022-12-29T09:15:28;15.50;34.20
22827;DHT22;11580;52.562;13.418;2022-12-29T09:17:55;15.50;34.00
22827;DHT22;11580;52.562;13.418;2022-12-29T09:20:22;15.60;34.00
22827;DHT22;11580;52.562;13.418;2022-12-29T09:22:51;15.60;34.50
22827;DHT22;11580;52.562;13.418;2022-12-29T09:25:18;15.60;33.70
22827;DHT22;11580;52.562;13.418;2022-12-29T09:27:45;15.60;33.70
22827;DHT22;11580;52.562;13.418;2022-12-29T09:30:13;15.60;33.70
22827;DHT22;11580;52.562;13.418;2022-12-29T09:32:41;15.60;33.70
22827;DHT22;11580;52.562;13.418;2022-12-29T09:35:08;15.60;33.80
22827;DHT22;11580;52.562;13.418;2022-12-29T09:37:36;15.70;33.90
22827;DHT22;11580;52.562;13.418;2022-12-29T09:40:06;15.70;33.90
22827;DHT22;11580;52.562;13.418;2022-12-29T09:42:45;15.70;33.60
22827;DHT22;11580;52.562;13.418;2022-12-29T09:45:27;15.80;33.70
22827;DHT22;11580;52.562;13.418;2022-12-29T09:47:59;15.80;33.50
22827;DHT22;11580;52.562;13.418;2022-12-29T09:50:29;15.80;33.80
22827;DHT22;11580;52.562;13.418;2022-12-29T09:53:03;15.90;33.70
22827;DHT22;11580;52.562;13.418;2022-12-29T09:55:42;16.00;33.80
22827;DHT22;11580;52.562;13.418;2022-12-29T09:58:17;16.00;33.50
22827;DHT22;11580;52.562;13.418;2022-12-29T10:00:52;16.10;33.60
22827;DHT22;11580;52.562;13.418;2022-12-29T10:03:26;16.10;33.60
22827;DHT22;11580;52.562;13.418;2022-12-29T10:06:05;16.20;34.10
22827;DHT22;11580;52.562;13.418;2022-12-29T10:08:40;16.30;33.40
22827;DHT22;11580;52.562;13.418;2022-12-29T10:11:23;16.40;33.50
22827;DHT22;11580;52.562;13.418;2022-12-29T10:14:15;16.40;33.50
22827;DHT22;11580;52.562;13.418;2022-12-29T10:16:59;16.50;33.50
22827;DHT22;11580;52.562;13.418;2022-12-29T10:19:52;16.50;33.30
22827;DHT22;11580;52.562;13.418;2022-12-29T10:22:45;16.60;32.90
22827;DHT22;11580;52.562;13.418;2022-12-29T10:25:24;16.60;32.90
22827;DHT22;11580;52.562;13.418;2022-12-29T10:27:55;16.60;34.00
22827;DHT22;11580;52.562;13.418;2022-12-29T10:30:26;16.60;33.20
22827;DHT22;11580;52.562;13.418;2022-12-29T10:32:55;16.60;33.70
22827;DHT22;11580;52.562;13.418;2022-12-29T10:35:26;16.60;33.50
22827;DHT22;11580;52.562;13.418;2022-12-29T10:38:01;16.70;33.80
22827;DHT22;11580;52.562;13.418;2022-12-29T10:40:40;16.70;33.60
22827;DHT22;11580;52.562;13.418;2022-12-29T10:43:21;16.80;33.60
22827;DHT22;11580;52.562;13.418;2022-12-29T10:45:53;16.90;33.10
22827;DHT22;11580;52.562;13.418;2022-12-29T10:48:25;17.00;33.80
22827;DHT22;11580;52.562;13.418;2022-12-29T10:50:57;17.10;33.60
22827;DHT22;11580;52.562;13.418;2022-12-29T10:53:30;17.20;33.50
22827;DHT22;11580;52.562;13.418;2022-12-29T10:56:13;17.30;33.30
22827;DHT22;11580;52.562;13.418;2022-12-29T10:58:49;17.40;32.90
22827;DHT22;11580;52.562;13.418;2022-12-29T11:01:18;17.40;33.10
22827;DHT22;11580;52.562;13.418;2022-12-29T11:03:55;17.50;33.10
22827;DHT22;11580;52.562;13.418;2022-12-29T11:06:29;17.60;32.50
22827;DHT22;11580;52.562;13.418;2022-12-29T11:08:59;17.60;33.10
22827;DHT22;11580;52.562;13.418;2022-12-29T11:11:34;17.70;32.90
22827;DHT22;11580;52.562;13.418;2022-12-29T11:14:11;17.70;32.30
22827;DHT22;11580;52.562;13.418;2022-12-29T11:16:41;17.80;31.90
22827;DHT22;11580;52.562;13.418;2022-12-29T11:19:20;17.80;32.60
22827;DHT22;11580;52.562;13.418;2022-12-29T11:21:48;17.90;31.80
22827;DHT22;11580;52.562;13.418;2022-12-29T11:24:22;17.90;32.60
22827;DHT22;11580;52.562;13.418;2022-12-29T11:26:53;17.90;31.80
22827;DHT22;11580;52.562;13.418;2022-12-29T11:29:26;17.90;32.20
22827;DHT22;11580;52.562;13.418;2022-12-29T11:31:56;17.90;32.00
22827;DHT22;11580;52.562;13.418;2022-12-29T11:34:26;18.00;32.10
22827;DHT22;11580;52.562;13.418;2022-12-29T11:37:02;18.00;32.10
22827;DHT22;11580;52.562;13.418;2022-12-29T11:39:36;18.00;31.80
22827;DHT22;11580;52.562;13.418;2022-12-29T11:42:14;18.00;32.50
22827;DHT22;11580;52.562;13.418;2022-12-29T11:44:46;18.00;31.40
22827;DHT22;11580;52.562;13.418;2022-12-29T11:47:26;18.00;31.70
22827;DHT22;11580;52.562;13.418;2022-12-29T11:49:59;18.00;31.70
22827;DHT22;11580;52.562;13.418;2022-12-29T11:52:31;18.00;32.00
22827;DHT22;11580;52.562;13.418;2022-12-29T11:55:02;18.00;32.20
22827;DHT22;11580;52.562;13.418;2022-12-29T11:57:33;18.00;32.30
22827;DHT22;11580;52.562;13.418;2022-12-29T12:00:15;17.90;32.10
22827;DHT22;11580;52.562;13.418;2022-12-29T12:02:50;17.90;31.60
22827;DHT22;11580;52.562;13.418;2022-12-29T12:05:24;17.90;31.70
22827;DHT22;11580;52.562;13.418;2022-12-29T12:08:02;17.90;31.70
22827;DHT22;11580;52.562;13.418;2022-12-29T12:10:40;17.80;31.90
22827;DHT22;11580;52.562;13.418;2022-12-29T12:13:24;17.80;32.10
22827;DHT22;11580;52.562;13.418;2022-12-29T12:16:04;17.70;32.70
22827;DHT22;11580;52.562;13.418;2022-12-29T12:18:40;17.60;32.10
22827;DHT22;11580;52.562;13.418;2022-12-29T12:21:18;17.60;32.30
22827;DHT22;11580;52.562;13.418;2022-12-29T12:24:04;17.40;32.30
22827;DHT22;11580;52.562;13.418;2022-12-29T12:26:55;17.40;32.60
22827;DHT22;11580;52.562;13.418;2022-12-29T12:29:33;17.20;32.70
22827;DHT22;11580;52.562;13.418;2022-12-29T12:32:11;17.10;32.80
22827;DHT22;11580;52.562;13.418;2022-12-29T12:34:43;17.00;32.80
22827;DHT22;11580;52.562;13.418;2022-12-29T12:37:39;16.90;32.90
22827;DHT22;11580;52.562;13.418;2022-12-29T12:43:41;16.80;33.10
22827;DHT22;11580;52.562;13.418;2022-12-29T12:46:19;16.70;33.20
22827;DHT22;11580;52.562;13.418;2022-12-29T12:49:34;16.70;33.30
22827;DHT22;11580;52.562;13.418;2022-12-29T12:52:28;16.70;33.60
22827;DHT22;11580;52.562;13.418;2022-12-29T12:58:21;16.60;33.30
22827;DHT22;11580;52.562;13.418;2022-12-29T13:01:04;16.60;33.70
22827;DHT22;11580;52.562;13.418;2022-12-29T13:03:51;16.50;32.90
22827;DHT22;11580;52.562;13.418;2022-12-29T13:06:39;16.50;32.80
22827;DHT22;11580;52.562;13.418;2022-12-29T13:09:29;16.40;32.70
22827;DHT22;11580;52.562;13.418;2022-12-29T13:12:18;16.30;32.80
22827;DHT22;11580;52.562;13.418;2022-12-29T13:15:01;16.20;33.10
22827;DHT22;11580;52.562;13.418;2022-12-29T13:17:42;16.10;33.20
22827;DHT22;11580;52.562;13.418;2022-12-29T13:20:24;16.00;33.20
22827;DHT22;11580;52.562;13.418;2022-12-29T13:23:04;15.90;33.10
22827;DHT22;11580;52.562;13.418;2022-12-29T13:25:42;15.80;33.30
22827;DHT22;11580;52.562;13.418;2022-12-29T13:28:21;15.70;33.50
22827;DHT22;11580;52.562;13.418;2022-12-29T13:30:59;15.60;33.80
22827;DHT22;11580;52.562;13.418;2022-12-29T13:33:38;15.60;34.70
22827;DHT22;11580;52.562;13.418;2022-12-29T13:36:22;15.50;34.30
22827;DHT22;11580;52.562;13.418;2022-12-29T13:39:01;15.40;34.50
22827;DHT22;11580;52.562;13.418;2022-12-29T13:41:33;15.40;34.60
22827;DHT22;11580;52.562;13.418;2022-12-29T13:44:05;15.30;34.50
22827;DHT22;11580;52.562;13.418;2022-12-29T13:46:40;15.20;34.40
22827;DHT22;11580;52.562;13.418;2022-12-29T13:49:14;15.20;34.80
22827;DHT22;11580;52.562;13.418;2022-12-29T13:51:50;15.10;34.80
22827;DHT22;11580;52.562;13.418;2022-12-29T13:54:30;15.10;35.10
22827;DHT22;11580;52.562;13.418;2022-12-29T13:57:10;15.10;36.00
22827;DHT22;11580;52.562;13.418;2022-12-29T13:59:51;15.00;35.70
22827;DHT22;11580;52.562;13.418;2022-12-29T14:02:29;15.00;35.40
22827;DHT22;11580;52.562;13.418;2022-12-29T14:05:27;14.90;36.20
22827;DHT22;11580;52.562;13.418;2022-12-29T14:08:00;15.00;35.50
22827;DHT22;11580;52.562;13.418;2022-12-29T14:10:32;14.90;36.40
22827;DHT22;11580;52.562;13.418;2022-12-29T14:13:05;14.90;35.80
22827;DHT22;11580;52.562;13.418;2022-12-29T14:15:38;14.90;35.90
22827;DHT22;11580;52.562;13.418;2022-12-29T14:18:13;14.90;35.60
22827;DHT22;11580;52.562;13.418;2022-12-29T14:20:53;14.90;36.20
22827;DHT22;11580;52.562;13.418;2022-12-29T14:23:35;14.80;36.40
22827;DHT22;11580;52.562;13.418;2022-12-29T14:26:34;14.80;37.40
22827;DHT22;11580;52.562;13.418;2022-12-29T14:29:22;14.80;36.90
22827;DHT22;11580;52.562;13.418;2022-12-29T14:32:37;14.80;36.90
22827;DHT22;11580;52.562;13.418;2022-12-29T14:38:16;14.70;37.20
22827;DHT22;11580;52.562;13.418;2022-12-29T14:40:49;14.70;37.00
22827;DHT22;11580;52.562;13.418;2022-12-29T14:43:24;14.60;36.50
22827;DHT22;11580;52.562;13.418;2022-12-29T14:45:59;14.60;37.20
22827;DHT22;11580;52.562;13.418;2022-12-29T14:48:38;14.60;37.20
22827;DHT22;11580;52.562;13.418;2022-12-29T14:51:21;14.70;38.40
22827;DHT22;11580;52.562;13.418;2022-12-29T14:53:56;14.60;37.70
22827;DHT22;11580;52.562;13.418;2022-12-29T14:56:26;14.70;37.10
22827;DHT22;11580;52.562;13.418;2022-12-29T14:59:00;14.70;37.10
22827;DHT22;11580;52.562;13.418;2022-12-29T15:01:39;14.70;37.20
22827;DHT22;11580;52.562;13.418;2022-12-29T15:04:17;14.70;37.40
22827;DHT22;11580;52.562;13.418;2022-12-29T15:06:48;14.80;37.40
22827;DHT22;11580;52.562;13.418;2022-12-29T15:09:26;14.80;37.20
22827;DHT22;11580;52.562;13.418;2022-12-29T15:12:03;14.90;37.40
22827;DHT22;11580;52.562;13.418;2022-12-29T15:14:36;14.90;37.20
22827;DHT22;11580;52.562;13.418;2022-12-29T15:17:10;15.00;37.20
22827;DHT22;11580;52.562;13.418;2022-12-29T15:19:50;15.00;36.80
22827;DHT22;11580;52.562;13.418;2022-12-29T15:22:17;15.10;37.50
22827;DHT22;11580;52.562;13.418;2022-12-29T15:24:45;15.10;36.60
22827;DHT22;11580;52.562;13.418;2022-12-29T15:27:14;15.10;36.40
22827;DHT22;11580;52.562;13.418;2022-12-29T15:29:47;15.20;36.50
22827;DHT22;11580;52.562;13.418;2022-12-29T15:32:23;15.20;36.40
22827;DHT22;11580;52.562;13.418;2022-12-29T15:34:53;15.20;36.00
22827;DHT22;11580;52.562;13.418;2022-12-29T15:37:24;15.20;35.80
22827;DHT22;11580;52.562;13.418;2022-12-29T15:39:54;15.10;35.40
22827;DHT22;11580;52.562;13.418;2022-12-29T15:42:43;15.00;35.20
22827;DHT22;11580;52.562;13.418;2022-12-29T15:45:20;15.00;35.10
22827;DHT22;11580;52.562;13.418;2022-12-29T15:47:54;14.80;34.90
22827;DHT22;11580;52.562;13.418;2022-12-29T15:50:25;14.70;35.60
22827;DHT22;11580;52.562;13.418;2022-12-29T15:52:55;14.60;34.90
22827;DHT22;11580;52.562;13.418;2022-12-29T15:55:28;14.60;35.70
22827;DHT22;11580;52.562;13.418;2022-12-29T15:58:00;14.40;35.20
22827;DHT22;11580;52.562;13.418;2022-12-29T16:00:33;14.30;35.30
22827;DHT22;11580;52.562;13.418;2022-12-29T16:03:04;14.20;35.50
22827;DHT22;11580;52.562;13.418;2022-12-29T16:05:38;14.10;35.50
22827;DHT22;11580;52.562;13.418;2022-12-29T16:08:23;14.00;35.60
22827;DHT22;11580;52.562;13.418;2022-12-29T16:10:59;14.00;36.30
22827;DHT22;11580;52.562;13.418;2022-12-29T16:13:29;13.90;36.00
22827;DHT22;11580;52.562;13.418;2022-12-29T16:16:16;13.80;36.90